sensor_id;sensor_type;location;lat;lon;timestamp;pressure;altitude;pressure_sealevel;temperature;humidity
62458;BME280;48509;52.122;5.250;2023-05-29T00:00:56;102427.0;;;13.08;86.61
62458;BME280;48509;52.122;5.250;2023-05-29T00:04:08;102425.0;;;13.04;86.08
62458;BME280;48509;52.122;5.250;2023-05-29T00:05:44;102426.0;;;13.08;86.26
62458;BME280;48509;52.122;5.250;2023-05-29T00:07:20;102429.0;;;13.07;85.97
62458;BME280;48509;52.122;5.250;2023-05-29T00:10:33;102428.0;;;13.04;86.28
62458;BME280;48509;52.122;5.250;2023-05-29T00:12:09;102423.0;;;13.08;86.12
62458;BME280;48509;52.122;5.250;2023-05-29T00:13:45;102424.0;;;13.1;85.41
62458;BME280;48509;52.122;5.250;2023-05-29T00:15:21;102420.0;;;13.06;86.01
62458;BME280;48509;52.122;5.250;2023-05-29T00:18:33;102418.0;;;13.2;85.27
62458;BME280;48509;52.122;5.250;2023-05-29T00:20:11;102419.0;;;13.16;85.31
62458;BME280;48509;52.122;5.250;2023-05-29T00:21:47;102420.0;;;13.1;85.58
62458;BME280;48509;52.122;5.250;2023-05-29T00:24:59;102418.0;;;13.07;85.43
62458;BME280;48509;52.122;5.250;2023-05-29T00:26:35;102426.0;;;12.95;86.01
62458;BME280;48509;52.122;5.250;2023-05-29T00:28:11;102422.0;;;12.91;85.98
62458;BME280;48509;52.122;5.250;2023-05-29T00:31:23;102423.0;;;12.92;85.89
62458;BME280;48509;52.122;5.250;2023-05-29T00:33:00;102423.0;;;13.04;85.41
62458;BME280;48509;52.122;5.250;2023-05-29T00:34:36;102427.0;;;12.96;84.84
62458;BME280;48509;52.122;5.250;2023-05-29T00:37:48;102431.0;;;12.98;84.9
62458;BME280;48509;52.122;5.250;2023-05-29T00:39:24;102441.00000000001;;;12.93;85.39
62458;BME280;48509;52.122;5.250;2023-05-29T00:41:00;102439.00000000001;;;12.77;85.84
62458;BME280;48509;52.122;5.250;2023-05-29T00:42:37;102440.00000000001;;;12.88;85.31
62458;BME280;48509;52.122;5.250;2023-05-29T00:45:49;102449.0;;;12.9;84.99
62458;BME280;48509;52.122;5.250;2023-05-29T00:47:26;102451.0;;;12.84;85.5
62458;BME280;48509;52.122;5.250;2023-05-29T00:49:04;102446.0;;;12.83;85.51
62458;BME280;48509;52.122;5.250;2023-05-29T00:52:19;102445.0;;;12.73;85.78
62458;BME280;48509;52.122;5.250;2023-05-29T00:53:57;102452.0;;;12.68;85.72
62458;BME280;48509;52.122;5.250;2023-05-29T00:55:34;102450.0;;;12.65;85.62
62458;BME280;48509;52.122;5.250;2023-05-29T00:57:12;102449.0;;;12.7;85.6
62458;BME280;48509;52.122;5.250;2023-05-29T01:00:27;102449.0;;;12.76;85.28
62458;BME280;48509;52.122;5.250;2023-05-29T01:02:04;102454.0;;;12.71;85.01
62458;BME280;48509;52.122;5.250;2023-05-29T01:03:40;102458.0;;;12.72;85.37
62458;BME280;48509;52.122;5.250;2023-05-29T01:06:53;102451.0;;;12.51;85.3
62458;BME280;48509;52.122;5.250;2023-05-29T01:08:30;102450.0;;;12.48;86.09
62458;BME280;48509;52.122;5.250;2023-05-29T01:10:07;102450.0;;;12.42;85.95
62458;BME280;48509;52.122;5.250;2023-05-29T01:13:32;102454.0;;;12.44;85.97
62458;BME280;48509;52.122;5.250;2023-05-29T01:15:18;102452.0;;;12.43;86.15
62458;BME280;48509;52.122;5.250;2023-05-29T01:17:03;102457.0;;;12.57;85.02
62458;BME280;48509;52.122;5.250;2023-05-29T01:18:49;102459.99999999999;;;12.49;85.33
62458;BME280;48509;52.122;5.250;2023-05-29T01:20:36;102457.0;;;12.47;85.2
62458;BME280;48509;52.122;5.250;2023-05-29T01:24:23;102466.00000000001;;;12.34;85.98
62458;BME280;48509;52.122;5.250;2023-05-29T01:26:17;102471.0;;;12.33;85.9
62458;BME280;48509;52.122;5.250;2023-05-29T01:27:58;102473.0;;;12.4;85.14
62458;BME280;48509;52.122;5.250;2023-05-29T01:29:39;102482.0;;;12.37;85.45
62458;BME280;48509;52.122;5.250;2023-05-29T01:31:20;102482.0;;;12.28;86.4
62458;BME280;48509;52.122;5.250;2023-05-29T01:33:01;102481.0;;;12.24;86.54
62458;BME280;48509;52.122;5.250;2023-05-29T01:36:14;102484.99999999999;;;12.09;87.68
62458;BME280;48509;52.122;5.250;2023-05-29T01:37:50;102483.99999999999;;;12.13;87.08
62458;BME280;48509;52.122;5.250;2023-05-29T01:39:26;102488.00000000001;;;12.15;86.96
62458;BME280;48509;52.122;5.250;2023-05-29T01:42:41;102486.99999999999;;;12.28;86.04
62458;BME280;48509;52.122;5.250;2023-05-29T01:44:17;102491.00000000001;;;12.21;86.35
62458;BME280;48509;52.122;5.250;2023-05-29T01:45:55;102494.0;;;12.07;86.85
62458;BME280;48509;52.122;5.250;2023-05-29T01:47:31;102493.0;;;12.13;86.76
62458;BME280;48509;52.122;5.250;2023-05-29T01:50:45;102497.0;;;12.22;86.29
62458;BME280;48509;52.122;5.250;2023-05-29T01:52:21;102494.0;;;12.07;86.81
62458;BME280;48509;52.122;5.250;2023-05-29T01:53:58;102498.0;;;12.19;86.13
62458;BME280;48509;52.122;5.250;2023-05-29T01:57:11;102502.0;;;12.09;86.86
62458;BME280;48509;52.122;5.250;2023-05-29T01:58:48;102502.0;;;11.98;87.42
62458;BME280;48509;52.122;5.250;2023-05-29T02:00:26;102503.0;;;12.0;87.25
62458;BME280;48509;52.122;5.250;2023-05-29T02:02:05;102501.0;;;12.11;86.42
62458;BME280;48509;52.122;5.250;2023-05-29T02:05:18;102501.0;;;12.05;86.76
62458;BME280;48509;52.122;5.250;2023-05-29T02:06:54;102501.0;;;12.14;86.1
62458;BME280;48509;52.122;5.250;2023-05-29T02:08:30;102504.0;;;12.14;85.83
62458;BME280;48509;52.122;5.250;2023-05-29T02:11:44;102508.99999999999;;;12.23;85.31
62458;BME280;48509;52.122;5.250;2023-05-29T02:13:20;102513.00000000001;;;12.07;86.54
62458;BME280;48509;52.122;5.250;2023-05-29T02:14:56;102509.99999999999;;;11.96;87.11
62458;BME280;48509;52.122;5.250;2023-05-29T02:18:11;102506.0;;;11.91;87.01
62458;BME280;48509;52.122;5.250;2023-05-29T02:19:48;102500.0;;;11.92;87.32
62458;BME280;48509;52.122;5.250;2023-05-29T02:21:25;102492.0;;;11.85;87.77
62458;BME280;48509;52.122;5.250;2023-05-29T02:23:01;102492.0;;;11.86;87.57
62458;BME280;48509;52.122;5.250;2023-05-29T02:26:13;102491.00000000001;;;11.9;87.27
62458;BME280;48509;52.122;5.250;2023-05-29T02:27:49;102492.0;;;11.89;87.31
62458;BME280;48509;52.122;5.250;2023-05-29T02:29:25;102495.0;;;11.83;87.51
62458;BME280;48509;52.122;5.250;2023-05-29T02:32:38;102497.0;;;11.83;87.61
62458;BME280;48509;52.122;5.250;2023-05-29T02:34:15;102492.0;;;11.68;88.51
62458;BME280;48509;52.122;5.250;2023-05-29T02:35:51;102494.0;;;11.69;88.06
62458;BME280;48509;52.122;5.250;2023-05-29T02:39:03;102496.0;;;11.7;88.4
62458;BME280;48509;52.122;5.250;2023-05-29T02:40:39;102498.0;;;11.83;87.82
62458;BME280;48509;52.122;5.250;2023-05-29T02:42:15;102499.0;;;11.72;88.28
62458;BME280;48509;52.122;5.250;2023-05-29T02:45:27;102501.0;;;11.62;88.92
62458;BME280;48509;52.122;5.250;2023-05-29T02:47:04;102506.0;;;11.6;88.98
62458;BME280;48509;52.122;5.250;2023-05-29T02:48:41;102503.0;;;11.54;89.57
62458;BME280;48509;52.122;5.250;2023-05-29T02:50:17;102505.0;;;11.5;89.54
62458;BME280;48509;52.122;5.250;2023-05-29T02:53:29;102508.99999999999;;;11.48;90.29
62458;BME280;48509;52.122;5.250;2023-05-29T02:55:07;102508.0;;;11.31;90.89
62458;BME280;48509;52.122;5.250;2023-05-29T02:56:43;102503.0;;;11.45;90.36
62458;BME280;48509;52.122;5.250;2023-05-29T02:59:56;102504.0;;;11.5;90.36
62458;BME280;48509;52.122;5.250;2023-05-29T03:01:32;102501.0;;;11.47;90.07
62458;BME280;48509;52.122;5.250;2023-05-29T03:03:09;102505.0;;;11.56;89.73
62458;BME280;48509;52.122;5.250;2023-05-29T03:06:21;102514.00000000001;;;11.48;90.06
62458;BME280;48509;52.122;5.250;2023-05-29T03:07:57;102513.00000000001;;;11.49;89.61
62458;BME280;48509;52.122;5.250;2023-05-29T03:09:34;102516.00000000001;;;11.54;89.57
62458;BME280;48509;52.122;5.250;2023-05-29T03:11:10;102515.00000000001;;;11.58;89.31
62458;BME280;48509;52.122;5.250;2023-05-29T03:14:22;102513.00000000001;;;11.47;89.83
62458;BME280;48509;52.122;5.250;2023-05-29T03:15:58;102513.00000000001;;;11.52;89.58
62458;BME280;48509;52.122;5.250;2023-05-29T03:17:34;102509.99999999999;;;11.56;89.25
62458;BME280;48509;52.122;5.250;2023-05-29T03:20:47;102500.0;;;11.55;89.16
62458;BME280;48509;52.122;5.250;2023-05-29T03:22:23;102502.0;;;11.47;89.3
62458;BME280;48509;52.122;5.250;2023-05-29T03:23:59;102505.0;;;11.38;89.84
62458;BME280;48509;52.122;5.250;2023-05-29T03:27:11;102500.0;;;11.4;89.8
62458;BME280;48509;52.122;5.250;2023-05-29T03:28:47;102502.0;;;11.45;89.71
62458;BME280;48509;52.122;5.250;2023-05-29T03:30:23;102504.0;;;11.32;89.58
62458;BME280;48509;52.122;5.250;2023-05-29T03:31:59;102500.0;;;11.39;89.36
62458;BME280;48509;52.122;5.250;2023-05-29T03:35:12;102505.0;;;11.25;90.05
62458;BME280;48509;52.122;5.250;2023-05-29T03:36:48;102506.0;;;11.34;89.9
62458;BME280;48509;52.122;5.250;2023-05-29T03:38:23;102513.00000000001;;;11.36;89.64
62458;BME280;48509;52.122;5.250;2023-05-29T03:41:35;102508.99999999999;;;11.38;89.46
62458;BME280;48509;52.122;5.250;2023-05-29T03:43:11;102507.0;;;11.32;89.66
62458;BME280;48509;52.122;5.250;2023-05-29T03:44:48;102505.0;;;11.26;90.12
62458;BME280;48509;52.122;5.250;2023-05-29T03:48:00;102505.0;;;11.22;90.0
62458;BME280;48509;52.122;5.250;2023-05-29T03:49:36;102508.99999999999;;;11.34;89.39
62458;BME280;48509;52.122;5.250;2023-05-29T03:51:12;102508.0;;;11.25;88.97
62458;BME280;48509;52.122;5.250;2023-05-29T03:54:25;102515.00000000001;;;11.36;88.96
62458;BME280;48509;52.122;5.250;2023-05-29T03:56:01;102507.0;;;11.35;88.79
62458;BME280;48509;52.122;5.250;2023-05-29T03:57:37;102507.0;;;11.28;89.66
62458;BME280;48509;52.122;5.250;2023-05-29T03:59:13;102508.0;;;11.28;89.89
62458;BME280;48509;52.122;5.250;2023-05-29T04:02:25;102509.99999999999;;;11.31;89.43
62458;BME280;48509;52.122;5.250;2023-05-29T04:04:02;102509.99999999999;;;11.25;89.86
62458;BME280;48509;52.122;5.250;2023-05-29T04:05:38;102507.0;;;11.12;90.54
62458;BME280;48509;52.122;5.250;2023-05-29T04:08:50;102511.99999999999;;;11.16;89.88
62458;BME280;48509;52.122;5.250;2023-05-29T04:10:26;102515.00000000001;;;11.19;89.41
62458;BME280;48509;52.122;5.250;2023-05-29T04:12:03;102516.00000000001;;;11.28;89.65
62458;BME280;48509;52.122;5.250;2023-05-29T04:15:15;102522.0;;;11.34;89.12
62458;BME280;48509;52.122;5.250;2023-05-29T04:16:51;102521.0;;;11.43;88.06
62458;BME280;48509;52.122;5.250;2023-05-29T04:18:28;102526.0;;;11.41;88.44
62458;BME280;48509;52.122;5.250;2023-05-29T04:21:41;102528.0;;;11.49;87.4
62458;BME280;48509;52.122;5.250;2023-05-29T04:23:17;102524.0;;;11.61;87.08
62458;BME280;48509;52.122;5.250;2023-05-29T04:24:53;102524.0;;;11.57;87.32
62458;BME280;48509;52.122;5.250;2023-05-29T04:26:29;102531.0;;;11.44;88.55
62458;BME280;48509;52.122;5.250;2023-05-29T04:29:42;102538.00000000001;;;11.39;89.05
62458;BME280;48509;52.122;5.250;2023-05-29T04:31:18;102533.0;;;11.4;88.03
62458;BME280;48509;52.122;5.250;2023-05-29T04:32:54;102533.0;;;11.5;87.95
62458;BME280;48509;52.122;5.250;2023-05-29T04:36:06;102533.0;;;11.44;87.86
62458;BME280;48509;52.122;5.250;2023-05-29T04:37:42;102538.00000000001;;;11.43;87.4
62458;BME280;48509;52.122;5.250;2023-05-29T04:39:18;102542.0;;;11.55;87.4
62458;BME280;48509;52.122;5.250;2023-05-29T04:42:32;102548.0;;;11.61;87.55
62458;BME280;48509;52.122;5.250;2023-05-29T04:44:08;102553.0;;;11.57;87.8
62458;BME280;48509;52.122;5.250;2023-05-29T04:45:44;102556.0;;;11.58;87.4
62458;BME280;48509;52.122;5.250;2023-05-29T04:47:20;102555.0;;;11.53;86.92
62458;BME280;48509;52.122;5.250;2023-05-29T04:50:32;102553.0;;;11.68;86.88
62458;BME280;48509;52.122;5.250;2023-05-29T04:52:08;102556.0;;;11.86;85.49
62458;BME280;48509;52.122;5.250;2023-05-29T04:53:44;102557.0;;;11.77;85.88
62458;BME280;48509;52.122;5.250;2023-05-29T04:56:56;102558.0;;;11.69;86.7
62458;BME280;48509;52.122;5.250;2023-05-29T04:58:32;102552.0;;;11.81;85.93
62458;BME280;48509;52.122;5.250;2023-05-29T05:00:09;102552.0;;;11.87;85.45
62458;BME280;48509;52.122;5.250;2023-05-29T05:03:21;102551.0;;;11.91;85.57
62458;BME280;48509;52.122;5.250;2023-05-29T05:04:58;102554.0;;;11.85;85.39
62458;BME280;48509;52.122;5.250;2023-05-29T05:06:34;102556.0;;;11.91;86.27
62458;BME280;48509;52.122;5.250;2023-05-29T05:09:46;102559.99999999999;;;11.97;85.02
62458;BME280;48509;52.122;5.250;2023-05-29T05:11:23;102564.00000000001;;;11.97;85.0
62458;BME280;48509;52.122;5.250;2023-05-29T05:12:59;102565.00000000001;;;12.01;85.03
62458;BME280;48509;52.122;5.250;2023-05-29T05:14:35;102568.0;;;12.1;83.67
62458;BME280;48509;52.122;5.250;2023-05-29T05:17:48;102564.00000000001;;;12.19;83.78
62458;BME280;48509;52.122;5.250;2023-05-29T05:19:24;102561.99999999999;;;12.21;83.19
62458;BME280;48509;52.122;5.250;2023-05-29T05:21:00;102558.0;;;12.21;83.71
62458;BME280;48509;52.122;5.250;2023-05-29T05:24:12;102557.0;;;12.13;82.68
62458;BME280;48509;52.122;5.250;2023-05-29T05:25:48;102558.99999999999;;;12.3;82.65
62458;BME280;48509;52.122;5.250;2023-05-29T05:27:24;102557.0;;;12.34;82.49
62458;BME280;48509;52.122;5.250;2023-05-29T05:30:37;102548.0;;;12.41;81.62
62458;BME280;48509;52.122;5.250;2023-05-29T05:32:13;102552.0;;;12.4;82.42
62458;BME280;48509;52.122;5.250;2023-05-29T05:33:49;102552.0;;;12.47;81.27
62458;BME280;48509;52.122;5.250;2023-05-29T05:35:25;102557.0;;;12.43;82.17
62458;BME280;48509;52.122;5.250;2023-05-29T05:38:37;102556.0;;;12.44;82.64
62458;BME280;48509;52.122;5.250;2023-05-29T05:40:14;102557.0;;;12.49;81.88
62458;BME280;48509;52.122;5.250;2023-05-29T05:41:50;102557.0;;;12.52;83.02
62458;BME280;48509;52.122;5.250;2023-05-29T05:45:02;102563.00000000001;;;12.52;82.1
62458;BME280;48509;52.122;5.250;2023-05-29T05:46:39;102564.00000000001;;;12.55;81.19
62458;BME280;48509;52.122;5.250;2023-05-29T05:48:15;102564.00000000001;;;12.62;82.02
62458;BME280;48509;52.122;5.250;2023-05-29T05:51:27;102565.00000000001;;;12.64;81.84
62458;BME280;48509;52.122;5.250;2023-05-29T05:53:04;102566.00000000001;;;12.63;83.84
62458;BME280;48509;52.122;5.250;2023-05-29T05:54:40;102563.00000000001;;;12.66;81.73
62458;BME280;48509;52.122;5.250;2023-05-29T05:57:52;102571.0;;;12.68;81.75
62458;BME280;48509;52.122;5.250;2023-05-29T05:59:28;102578.0;;;12.82;82.2
62458;BME280;48509;52.122;5.250;2023-05-29T06:01:04;102578.0;;;12.76;80.72
62458;BME280;48509;52.122;5.250;2023-05-29T06:02:40;102577.0;;;12.85;79.74
62458;BME280;48509;52.122;5.250;2023-05-29T06:05:53;102582.0;;;12.92;80.36
62458;BME280;48509;52.122;5.250;2023-05-29T06:07:29;102581.0;;;12.9;78.98
62458;BME280;48509;52.122;5.250;2023-05-29T06:09:05;102582.0;;;12.98;79.44
62458;BME280;48509;52.122;5.250;2023-05-29T06:12:17;102578.0;;;12.95;78.52
62458;BME280;48509;52.122;5.250;2023-05-29T06:13:53;102580.0;;;12.98;77.83
62458;BME280;48509;52.122;5.250;2023-05-29T06:15:29;102582.0;;;13.09;78.56
62458;BME280;48509;52.122;5.250;2023-05-29T06:18:42;102574.0;;;13.13;78.31
62458;BME280;48509;52.122;5.250;2023-05-29T06:20:18;102572.0;;;13.08;77.88
62458;BME280;48509;52.122;5.250;2023-05-29T06:21:54;102573.0;;;13.19;76.3
62458;BME280;48509;52.122;5.250;2023-05-29T06:25:06;102573.0;;;13.18;75.49
62458;BME280;48509;52.122;5.250;2023-05-29T06:26:42;102579.0;;;13.22;76.3
62458;BME280;48509;52.122;5.250;2023-05-29T06:28:19;102576.0;;;13.25;76.83
62458;BME280;48509;52.122;5.250;2023-05-29T06:29:55;102574.0;;;13.23;75.16
62458;BME280;48509;52.122;5.250;2023-05-29T06:33:07;102582.0;;;13.4;75.22
62458;BME280;48509;52.122;5.250;2023-05-29T06:34:43;102572.0;;;13.5;74.03
62458;BME280;48509;52.122;5.250;2023-05-29T06:36:19;102582.0;;;13.54;75.24
62458;BME280;48509;52.122;5.250;2023-05-29T06:39:32;102580.0;;;13.62;73.16
62458;BME280;48509;52.122;5.250;2023-05-29T06:41:08;102583.0;;;13.55;72.53
62458;BME280;48509;52.122;5.250;2023-05-29T06:42:44;102586.99999999999;;;13.59;73.41
62458;BME280;48509;52.122;5.250;2023-05-29T06:45:56;102583.99999999999;;;13.64;74.02
62458;BME280;48509;52.122;5.250;2023-05-29T06:47:32;102583.99999999999;;;13.65;71.74
62458;BME280;48509;52.122;5.250;2023-05-29T06:49:08;102588.00000000001;;;13.62;71.05
62458;BME280;48509;52.122;5.250;2023-05-29T06:50:45;102592.0;;;13.7;71.33
62458;BME280;48509;52.122;5.250;2023-05-29T06:53:57;102594.0;;;13.78;71.94
62458;BME280;48509;52.122;5.250;2023-05-29T06:55:33;102602.0;;;13.8;71.83
62458;BME280;48509;52.122;5.250;2023-05-29T06:57:09;102599.0;;;13.97;71.25
62458;BME280;48509;52.122;5.250;2023-05-29T07:00:21;102597.0;;;13.95;70.22
62458;BME280;48509;52.122;5.250;2023-05-29T07:01:57;102592.0;;;14.1;71.56
62458;BME280;48509;52.122;5.250;2023-05-29T07:03:34;102592.0;;;14.1;69.99
62458;BME280;48509;52.122;5.250;2023-05-29T07:06:46;102592.0;;;14.2;71.94
62458;BME280;48509;52.122;5.250;2023-05-29T07:08:22;102595.0;;;14.29;69.98
62458;BME280;48509;52.122;5.250;2023-05-29T07:09:59;102592.0;;;14.19;68.94
62458;BME280;48509;52.122;5.250;2023-05-29T07:13:15;102595.0;;;14.35;68.87
62458;BME280;48509;52.122;5.250;2023-05-29T07:14:51;102592.0;;;14.27;68.66
62458;BME280;48509;52.122;5.250;2023-05-29T07:16:28;102597.0;;;14.22;68.64
62458;BME280;48509;52.122;5.250;2023-05-29T07:18:04;102597.0;;;14.16;69.47
62458;BME280;48509;52.122;5.250;2023-05-29T07:21:17;102599.0;;;14.15;68.69
62458;BME280;48509;52.122;5.250;2023-05-29T07:22:53;102599.0;;;14.27;68.58
62458;BME280;48509;52.122;5.250;2023-05-29T07:24:29;102601.0;;;14.39;67.99
62458;BME280;48509;52.122;5.250;2023-05-29T07:27:42;102606.0;;;14.38;66.74
62458;BME280;48509;52.122;5.250;2023-05-29T07:29:18;102608.0;;;14.43;66.37
62458;BME280;48509;52.122;5.250;2023-05-29T07:30:54;102608.0;;;14.54;68.17
62458;BME280;48509;52.122;5.250;2023-05-29T07:34:06;102605.0;;;14.61;67.67
62458;BME280;48509;52.122;5.250;2023-05-29T07:35:42;102606.0;;;14.67;66.92
62458;BME280;48509;52.122;5.250;2023-05-29T07:37:18;102613.00000000001;;;14.74;67.3
62458;BME280;48509;52.122;5.250;2023-05-29T07:38:55;102608.0;;;14.68;64.67
62458;BME280;48509;52.122;5.250;2023-05-29T07:42:07;102604.0;;;14.84;65.0
62458;BME280;48509;52.122;5.250;2023-05-29T07:43:43;102602.0;;;14.86;64.48
62458;BME280;48509;52.122;5.250;2023-05-29T07:45:19;102605.0;;;15.0;65.0
62458;BME280;48509;52.122;5.250;2023-05-29T07:48:31;102608.0;;;15.16;66.55
62458;BME280;48509;52.122;5.250;2023-05-29T07:50:08;102604.0;;;15.26;64.48
62458;BME280;48509;52.122;5.250;2023-05-29T07:51:45;102608.99999999999;;;15.2;64.11
62458;BME280;48509;52.122;5.250;2023-05-29T07:54:57;102600.0;;;15.22;64.89
62458;BME280;48509;52.122;5.250;2023-05-29T07:56:33;102606.0;;;15.16;65.12
62458;BME280;48509;52.122;5.250;2023-05-29T07:58:09;102602.0;;;15.15;64.53
62458;BME280;48509;52.122;5.250;2023-05-29T07:59:45;102607.0;;;15.16;62.91
62458;BME280;48509;52.122;5.250;2023-05-29T08:02:57;102613.00000000001;;;15.32;64.85
62458;BME280;48509;52.122;5.250;2023-05-29T08:04:34;102605.0;;;15.36;62.99
62458;BME280;48509;52.122;5.250;2023-05-29T08:06:10;102614.00000000001;;;15.52;63.34
62458;BME280;48509;52.122;5.250;2023-05-29T08:09:22;102609.99999999999;;;15.59;65.84
62458;BME280;48509;52.122;5.250;2023-05-29T08:10:58;102614.00000000001;;;15.65;63.0
62458;BME280;48509;52.122;5.250;2023-05-29T08:12:34;102618.0;;;15.62;61.0
62458;BME280;48509;52.122;5.250;2023-05-29T08:15:47;102616.00000000001;;;15.74;63.89
62458;BME280;48509;52.122;5.250;2023-05-29T08:17:23;102618.0;;;15.38;60.75
62458;BME280;48509;52.122;5.250;2023-05-29T08:18:59;102616.00000000001;;;15.57;61.37
62458;BME280;48509;52.122;5.250;2023-05-29T08:22:12;102623.0;;;15.7;60.86
62458;BME280;48509;52.122;5.250;2023-05-29T08:23:49;102622.0;;;15.72;60.36
62458;BME280;48509;52.122;5.250;2023-05-29T08:25:25;102622.0;;;15.67;60.34
62458;BME280;48509;52.122;5.250;2023-05-29T08:27:02;102626.0;;;15.69;60.38
62458;BME280;48509;52.122;5.250;2023-05-29T08:30:14;102625.0;;;15.68;62.96
62458;BME280;48509;52.122;5.250;2023-05-29T08:31:50;102619.0;;;15.55;61.12
62458;BME280;48509;52.122;5.250;2023-05-29T08:33:27;102631.0;;;15.69;61.49
62458;BME280;48509;52.122;5.250;2023-05-29T08:36:39;102636.99999999999;;;15.57;60.34
62458;BME280;48509;52.122;5.250;2023-05-29T08:38:15;102627.0;;;15.69;60.25
62458;BME280;48509;52.122;5.250;2023-05-29T08:39:50;102625.0;;;15.76;59.57
62458;BME280;48509;52.122;5.250;2023-05-29T08:43:16;102623.0;;;15.65;60.08
62458;BME280;48509;52.122;5.250;2023-05-29T08:44:56;102622.0;;;15.81;61.61
62458;BME280;48509;52.122;5.250;2023-05-29T08:46:33;102618.0;;;15.72;60.1
62458;BME280;48509;52.122;5.250;2023-05-29T08:48:10;102620.0;;;15.87;60.93
62458;BME280;48509;52.122;5.250;2023-05-29T08:51:32;102626.0;;;15.87;58.84
62458;BME280;48509;52.122;5.250;2023-05-29T08:54:48;102633.0;;;15.97;59.01
62458;BME280;48509;52.122;5.250;2023-05-29T08:56:24;102631.0;;;16.09;59.52
62458;BME280;48509;52.122;5.250;2023-05-29T08:59:39;102621.0;;;16.13;59.13
62458;BME280;48509;52.122;5.250;2023-05-29T09:01:18;102630.0;;;16.12;59.75
62458;BME280;48509;52.122;5.250;2023-05-29T09:02:55;102628.0;;;16.16;58.6
62458;BME280;48509;52.122;5.250;2023-05-29T09:06:06;102626.0;;;16.18;57.83
62458;BME280;48509;52.122;5.250;2023-05-29T09:07:42;102629.0;;;16.22;61.4
62458;BME280;48509;52.122;5.250;2023-05-29T09:09:19;102638.00000000001;;;16.29;56.71
62458;BME280;48509;52.122;5.250;2023-05-29T09:10:56;102632.0;;;16.12;56.41
62458;BME280;48509;52.122;5.250;2023-05-29T09:14:11;102639.00000000001;;;15.92;58.25
62458;BME280;48509;52.122;5.250;2023-05-29T09:16:07;102634.99999999999;;;16.11;58.16
62458;BME280;48509;52.122;5.250;2023-05-29T09:17:43;102633.0;;;16.3;58.12
62458;BME280;48509;52.122;5.250;2023-05-29T09:19:19;102629.0;;;16.47;57.81
62458;BME280;48509;52.122;5.250;2023-05-29T09:22:32;102634.99999999999;;;16.54;57.09
62458;BME280;48509;52.122;5.250;2023-05-29T09:24:08;102631.0;;;16.59;58.95
62458;BME280;48509;52.122;5.250;2023-05-29T09:25:44;102626.0;;;16.52;56.73
62458;BME280;48509;52.122;5.250;2023-05-29T09:29:03;102630.0;;;16.59;58.44
62458;BME280;48509;52.122;5.250;2023-05-29T09:30:40;102630.0;;;16.75;57.56
62458;BME280;48509;52.122;5.250;2023-05-29T09:32:17;102624.0;;;16.75;55.45
62458;BME280;48509;52.122;5.250;2023-05-29T09:33:54;102629.0;;;16.73;55.13
62458;BME280;48509;52.122;5.250;2023-05-29T09:37:12;102623.0;;;16.79;57.06
62458;BME280;48509;52.122;5.250;2023-05-29T09:38:49;102628.0;;;16.9;56.37
62458;BME280;48509;52.122;5.250;2023-05-29T09:40:25;102633.0;;;16.9;58.15
62458;BME280;48509;52.122;5.250;2023-05-29T09:43:38;102625.0;;;17.09;57.35
62458;BME280;48509;52.122;5.250;2023-05-29T09:45:17;102630.0;;;17.2;57.08
62458;BME280;48509;52.122;5.250;2023-05-29T09:46:57;102624.0;;;17.18;56.53
62458;BME280;48509;52.122;5.250;2023-05-29T09:48:35;102615.00000000001;;;17.14;58.05
62458;BME280;48509;52.122;5.250;2023-05-29T09:51:54;102617.0;;;17.22;56.19
62458;BME280;48509;52.122;5.250;2023-05-29T09:53:31;102616.00000000001;;;17.41;56.09
62458;BME280;48509;52.122;5.250;2023-05-29T09:55:08;102608.0;;;17.32;57.69
62458;BME280;48509;52.122;5.250;2023-05-29T09:58:22;102616.00000000001;;;17.43;57.29
62458;BME280;48509;52.122;5.250;2023-05-29T09:59:58;102620.0;;;17.3;54.59
62458;BME280;48509;52.122;5.250;2023-05-29T10:01:37;102618.0;;;17.23;54.51
62458;BME280;48509;52.122;5.250;2023-05-29T10:03:15;102611.99999999999;;;17.18;55.07
62458;BME280;48509;52.122;5.250;2023-05-29T10:06:28;102606.0;;;17.27;56.96
62458;BME280;48509;52.122;5.250;2023-05-29T10:08:05;102609.99999999999;;;17.36;55.13
62458;BME280;48509;52.122;5.250;2023-05-29T10:09:45;102608.0;;;17.43;56.31
62458;BME280;48509;52.122;5.250;2023-05-29T10:13:01;102605.0;;;17.43;56.87
62458;BME280;48509;52.122;5.250;2023-05-29T10:14:39;102606.0;;;17.5;56.37
62458;BME280;48509;52.122;5.250;2023-05-29T10:16:20;102604.0;;;17.63;57.17
62458;BME280;48509;52.122;5.250;2023-05-29T10:17:59;102611.99999999999;;;17.68;53.52
62458;BME280;48509;52.122;5.250;2023-05-29T10:21:18;102606.0;;;17.68;53.74
62458;BME280;48509;52.122;5.250;2023-05-29T10:22:56;102608.0;;;17.53;52.72
62458;BME280;48509;52.122;5.250;2023-05-29T10:24:37;102601.0;;;17.53;52.73
62458;BME280;48509;52.122;5.250;2023-05-29T10:26:15;102608.99999999999;;;17.68;52.95
62458;BME280;48509;52.122;5.250;2023-05-29T10:29:39;102604.0;;;17.68;52.92
62458;BME280;48509;52.122;5.250;2023-05-29T10:31:22;102614.00000000001;;;17.61;52.21
62458;BME280;48509;52.122;5.250;2023-05-29T10:33:13;102603.0;;;17.61;54.27
62458;BME280;48509;52.122;5.250;2023-05-29T10:35:06;102607.0;;;17.77;53.76
62458;BME280;48509;52.122;5.250;2023-05-29T10:36:56;102604.0;;;17.96;52.58
62458;BME280;48509;52.122;5.250;2023-05-29T10:40:22;102600.0;;;18.09;51.86
62458;BME280;48509;52.122;5.250;2023-05-29T10:41:59;102593.0;;;18.02;49.66
62458;BME280;48509;52.122;5.250;2023-05-29T10:43:35;102604.0;;;18.2;52.88
62458;BME280;48509;52.122;5.250;2023-05-29T10:45:47;102599.0;;;17.93;53.59
62458;BME280;48509;52.122;5.250;2023-05-29T10:47:24;102608.0;;;18.06;50.39
62458;BME280;48509;52.122;5.250;2023-05-29T10:50:36;102597.0;;;18.02;51.78